Time;durP1;ratioP1;P1;durP2;ratioP2;P2;SDS_P1;SDS_P2;PMS_P1;PMS_P2;Temp;Humidity;BMP_temperature;BMP_pressure;BME280_temperature;BME280_humidity;BME280_pressure;Samples;Min_cycle;Max_cycle;Signal;HPM_P1;HPM_P2
2021/04/16 00:00:54;;;;;;;11.63;6.23;;;-2.60;99.90;;;;;;2089342;28;20220;-64
2021/04/16 00:01:55;;;;;;;8.63;5.43;;;-2.60;99.90;;;;;;2089046;28;20176;-65
2021/04/16 00:02:56;;;;;;;9.20;6.33;;;-2.60;99.90;;;;;;2089272;28;20868;-65
2021/04/16 00:03:57;;;;;;;9.18;6.40;;;-2.60;99.90;;;;;;2088900;28;20277;-64
2021/04/16 00:04:57;;;;;;;9.40;6.10;;;-2.60;99.90;;;;;;2089335;28;20600;-65
2021/04/16 00:05:58;;;;;;;8.37;5.87;;;-2.70;99.90;;;;;;2089132;28;20274;-65
2021/04/16 00:06:59;;;;;;;7.87;6.00;;;-2.60;99.90;;;;;;2089147;28;20192;-65
2021/04/16 00:08:00;;;;;;;10.30;6.10;;;-2.60;99.90;;;;;;2089230;28;20187;-65
2021/04/16 00:09:02;;;;;;;8.80;6.10;;;-2.70;99.90;;;;;;2089171;28;20184;-65
2021/04/16 00:10:12;;;;;;;9.75;6.30;;;-2.70;99.90;;;;;;2089146;28;20180;-64
2021/04/16 00:11:21;;;;;;;9.75;6.28;;;-2.70;99.90;;;;;;2096641;28;20175;-63
2021/04/16 00:12:22;;;;;;;7.78;5.70;;;-2.60;99.90;;;;;;2095641;28;20655;-65
2021/04/16 00:13:24;;;;;;;9.90;6.57;;;-2.60;99.90;;;;;;2089199;28;20172;-64
2021/04/16 00:14:25;;;;;;;8.98;6.25;;;-2.70;99.90;;;;;;2088376;28;20190;-64
2021/04/16 00:15:29;;;;;;;7.43;6.03;;;-2.70;99.90;;;;;;2088533;28;20663;-65
2021/04/16 00:16:30;;;;;;;11.18;6.60;;;-2.70;99.90;;;;;;2096706;28;20262;-65
2021/04/16 00:17:31;;;;;;;12.52;6.88;;;-2.70;99.90;;;;;;2096679;28;20184;-64
2021/04/16 00:18:32;;;;;;;9.43;6.40;;;-2.70;99.90;;;;;;2088390;28;20191;-65
2021/04/16 00:19:34;;;;;;;8.27;6.00;;;-2.70;99.90;;;;;;2085384;28;20183;-64
2021/04/16 00:20:35;;;;;;;11.27;7.15;;;-2.70;99.90;;;;;;2088893;28;20768;-64
2021/04/16 00:21:37;;;;;;;9.45;6.35;;;-2.70;99.90;;;;;;2088240;28;20180;-65
2021/04/16 00:22:37;;;;;;;10.73;6.60;;;-2.70;99.90;;;;;;2088426;28;20191;-64
2021/04/16 00:23:39;;;;;;;9.40;6.93;;;-2.70;99.90;;;;;;2089020;28;20225;-63
2021/04/16 00:24:40;;;;;;;9.38;6.03;;;-2.70;99.90;;;;;;2089048;28;20176;-65
2021/04/16 00:25:41;;;;;;;8.90;6.70;;;-2.70;99.90;;;;;;2089094;28;20195;-65
2021/04/16 00:26:43;;;;;;;11.27;7.30;;;-2.80;99.90;;;;;;2088975;28;20202;-64
2021/04/16 00:27:44;;;;;;;11.13;6.68;;;-2.80;99.90;;;;;;2089070;28;20426;-65
2021/04/16 00:28:45;;;;;;;10.77;7.50;;;-2.70;99.90;;;;;;2089145;28;20204;-64
2021/04/16 00:29:46;;;;;;;9.93;6.93;;;-2.70;99.90;;;;;;2088984;28;20176;-65
2021/04/16 00:31:00;;;;;;;8.67;6.47;;;-2.70;99.90;;;;;;2089012;28;20257;-65
2021/04/16 00:32:01;;;;;;;9.13;5.88;;;-2.70;99.90;;;;;;2088291;28;20172;-64
2021/04/16 00:33:03;;;;;;;9.87;6.77;;;-2.70;99.90;;;;;;2088264;28;20698;-65
2021/04/16 00:34:04;;;;;;;8.40;6.20;;;-2.70;99.90;;;;;;2088355;28;20246;-65
2021/04/16 00:35:08;;;;;;;10.13;6.33;;;-2.80;99.90;;;;;;2088454;28;20191;-65
2021/04/16 00:36:10;;;;;;;11.13;6.70;;;-2.80;99.90;;;;;;2089104;28;20180;-65
2021/04/16 00:37:11;;;;;;;9.25;6.68;;;-2.80;99.90;;;;;;2088363;28;20193;-64
2021/04/16 00:38:13;;;;;;;10.63;6.97;;;-2.80;99.90;;;;;;2088391;28;20176;-64
2021/04/16 00:39:17;;;;;;;10.45;6.57;;;-2.80;99.90;;;;;;2088938;28;20188;-64
2021/04/16 00:40:24;;;;;;;11.88;7.35;;;-2.80;99.90;;;;;;2088982;28;20185;-65
2021/04/16 00:41:29;;;;;;;10.57;6.85;;;-2.80;99.90;;;;;;2088063;28;20167;-65
2021/04/16 00:42:29;;;;;;;9.95;6.35;;;-2.80;99.90;;;;;;2080752;28;20196;-64
2021/04/16 00:43:33;;;;;;;11.20;7.27;;;-2.80;99.90;;;;;;2088221;28;20184;-65
2021/04/16 00:44:35;;;;;;;8.50;6.22;;;-2.80;99.90;;;;;;2089014;28;20169;-64
2021/04/16 00:45:38;;;;;;;9.52;6.63;;;-2.80;99.90;;;;;;2088269;28;20188;-65
2021/04/16 00:46:50;;;;;;;9.23;6.18;;;-2.80;99.90;;;;;;2088296;28;20188;-64
2021/04/16 00:47:54;;;;;;;8.90;6.70;;;-2.80;99.90;;;;;;2088375;28;20183;-65
2021/04/16 00:49:00;;;;;;;8.20;5.88;;;-2.80;99.90;;;;;;2080561;28;20204;-65
2021/04/16 00:50:13;;;;;;;8.30;6.28;;;-2.80;99.90;;;;;;2080834;28;20227;-64
2021/04/16 00:51:31;;;;;;;6.93;5.65;;;-2.80;99.90;;;;;;2088280;28;20575;-65
2021/04/16 00:52:33;;;;;;;9.20;5.90;;;-2.80;99.90;;;;;;2088616;28;20168;-63
2021/04/16 00:53:34;;;;;;;9.32;6.00;;;-2.80;99.90;;;;;;2081673;28;20726;-64
2021/04/16 00:54:40;;;;;;;10.48;5.97;;;-2.80;99.90;;;;;;2089855;28;20176;-65
2021/04/16 00:55:42;;;;;;;11.30;6.35;;;-2.80;99.90;;;;;;2090056;28;20226;-64
2021/04/16 00:56:43;;;;;;;8.80;6.63;;;-2.80;99.90;;;;;;2089835;28;20232;-64
2021/04/16 00:57:44;;;;;;;8.60;6.20;;;-2.80;99.90;;;;;;2089818;28;20181;-65
2021/04/16 00:58:45;;;;;;;8.70;6.40;;;-2.80;99.90;;;;;;2089830;28;20263;-64
2021/04/16 00:59:52;;;;;;;9.13;5.73;;;-2.80;99.90;;;;;;2089982;28;20614;-65
2021/04/16 01:00:56;;;;;;;11.10;6.25;;;-2.80;99.90;;;;;;2089857;28;20160;-64
2021/04/16 01:02:00;;;;;;;9.35;6.28;;;-2.90;99.90;;;;;;2090285;28;20187;-65
2021/04/16 01:03:01;;;;;;;9.00;6.07;;;-2.90;99.90;;;;;;2089737;28;20289;-64
2021/04/16 01:04:01;;;;;;;9.77;6.35;;;-2.90;99.90;;;;;;2089756;28;20661;-65
2021/04/16 01:05:06;;;;;;;8.87;6.53;;;-2.90;99.90;;;;;;2090403;28;20191;-64
2021/04/16 01:06:09;;;;;;;10.25;6.57;;;-2.90;99.90;;;;;;2090456;28;20218;-63
2021/04/16 01:07:10;;;;;;;8.70;6.38;;;-2.90;99.90;;;;;;2089624;28;20620;-65
2021/04/16 01:08:12;;;;;;;8.77;6.10;;;-2.90;99.90;;;;;;2081667;28;20181;-64
2021/04/16 01:09:13;;;;;;;9.73;6.97;;;-2.90;99.90;;;;;;2089725;28;20192;-63
2021/04/16 01:10:15;;;;;;;11.57;6.57;;;-3.00;99.90;;;;;;2090439;28;20184;-65
2021/04/16 01:11:16;;;;;;;10.05;6.75;;;-2.90;99.90;;;;;;2090144;28;20187;-65
2021/04/16 01:12:18;;;;;;;11.45;6.57;;;-3.00;99.90;;;;;;2089835;28;20188;-63
2021/04/16 01:13:22;;;;;;;8.65;6.25;;;-3.00;99.90;;;;;;2081576;28;20218;-64
2021/04/16 01:14:23;;;;;;;9.70;6.10;;;-3.00;99.90;;;;;;2089845;28;20671;-65
2021/04/16 01:15:30;;;;;;;11.88;6.93;;;-3.00;99.90;;;;;;2090345;28;20169;-65
2021/04/16 01:16:32;;;;;;;10.30;6.10;;;-3.00;99.90;;;;;;2089886;28;20169;-65
2021/04/16 01:17:33;;;;;;;9.02;6.20;;;-3.00;99.90;;;;;;2081955;28;20212;-65
2021/04/16 01:18:38;;;;;;;9.17;6.77;;;-3.10;99.90;;;;;;2089737;28;20180;-65
2021/04/16 01:20:05;;;;;;;10.68;6.95;;;-3.10;99.90;;;;;;2089743;28;20164;-65
2021/04/16 01:21:13;;;;;;;10.02;6.60;;;-3.00;99.90;;;;;;2089666;28;20207;-65
2021/04/16 01:22:31;;;;;;;11.85;6.55;;;-3.00;99.90;;;;;;2089838;28;20172;-64
2021/04/16 01:23:42;;;;;;;10.38;6.70;;;-3.00;99.90;;;;;;2083895;28;20252;-65
2021/04/16 01:24:43;;;;;;;8.68;5.55;;;-3.10;99.90;;;;;;2089939;28;20177;-65
2021/04/16 01:25:44;;;;;;;10.98;6.85;;;-3.10;99.90;;;;;;2089639;28;20184;-64
2021/04/16 01:26:44;;;;;;;9.18;6.53;;;-3.10;99.90;;;;;;2089688;28;20273;-65
2021/04/16 01:27:45;;;;;;;9.30;6.20;;;-3.10;99.90;;;;;;2089614;28;20230;-64
2021/04/16 01:28:47;;;;;;;10.33;6.27;;;-3.10;99.90;;;;;;2089834;28;20888;-65
2021/04/16 01:29:47;;;;;;;10.88;6.15;;;-3.10;99.90;;;;;;2090176;28;20188;-64
2021/04/16 01:30:59;;;;;;;8.57;6.43;;;-3.10;99.90;;;;;;2090410;28;20219;-65
2021/04/16 01:32:00;;;;;;;9.05;5.95;;;-3.10;99.90;;;;;;2090069;28;20176;-65
2021/04/16 01:33:02;;;;;;;7.97;6.07;;;-3.10;99.90;;;;;;2090293;28;20195;-65
2021/04/16 01:34:03;;;;;;;9.38;6.55;;;-3.20;99.90;;;;;;2089399;28;20691;-65
2021/04/16 01:35:11;;;;;;;11.45;6.55;;;-3.20;99.90;;;;;;2089676;28;20180;-65
2021/04/16 01:36:18;;;;;;;9.32;6.32;;;-3.20;99.90;;;;;;2090232;28;20268;-63
2021/04/16 01:37:19;;;;;;;9.75;6.97;;;-3.20;99.90;;;;;;2089794;28;20183;-65
2021/04/16 01:38:20;;;;;;;9.13;6.00;;;-3.20;99.90;;;;;;2089605;28;20176;-64
2021/04/16 01:39:26;;;;;;;9.55;6.70;;;-3.20;99.90;;;;;;2089598;28;20184;-63
2021/04/16 01:40:26;;;;;;;10.60;6.57;;;-3.20;99.90;;;;;;2089620;28;20244;-65
2021/04/16 01:41:29;;;;;;;10.07;6.30;;;-3.20;99.90;;;;;;2089509;28;20188;-63
2021/04/16 01:42:30;;;;;;;10.02;6.65;;;-3.20;99.90;;;;;;2089565;28;20180;-65
2021/04/16 01:43:36;;;;;;;9.67;7.13;;;-3.20;99.90;;;;;;2090167;28;20177;-66
2021/04/16 01:44:37;;;;;;;10.73;7.32;;;-3.30;99.90;;;;;;2089490;28;20176;-65
2021/04/16 01:45:37;;;;;;;10.50;6.47;;;-3.20;99.90;;;;;;2089535;28;20172;-63
2021/04/16 01:46:50;;;;;;;10.70;6.17;;;-3.30;99.90;;;;;;2090021;28;20287;-65
2021/04/16 01:47:59;;;;;;;9.48;6.10;;;-3.30;99.90;;;;;;2090195;28;20655;-65
2021/04/16 01:49:00;;;;;;;10.63;7.05;;;-3.20;99.90;;;;;;2089534;28;20627;-64
2021/04/16 01:50:01;;;;;;;9.20;6.18;;;-3.20;99.90;;;;;;2089532;28;20177;-64
2021/04/16 01:51:02;;;;;;;10.43;6.60;;;-3.20;99.90;;;;;;2090117;28;20715;-65
2021/04/16 01:52:07;;;;;;;10.68;6.18;;;-3.20;99.90;;;;;;2089921;28;20177;-65
2021/04/16 01:53:08;;;;;;;11.80;6.15;;;-3.20;99.90;;;;;;2090089;28;20184;-64
2021/04/16 01:54:35;;;;;;;12.03;6.20;;;-3.20;99.90;;;;;;2090118;28;20196;-65
2021/04/16 01:55:36;;;;;;;8.93;6.18;;;-3.20;99.90;;;;;;2090105;28;20263;-64
2021/04/16 01:56:39;;;;;;;9.13;6.60;;;-3.20;99.90;;;;;;2089976;28;20545;-65
2021/04/16 01:57:40;;;;;;;12.63;7.35;;;-3.20;99.90;;;;;;2089540;28;20214;-63
2021/04/16 01:58:42;;;;;;;10.20;6.55;;;-3.20;99.90;;;;;;2081139;28;20181;-65
2021/04/16 01:59:46;;;;;;;10.70;6.82;;;-3.20;99.90;;;;;;2089360;28;20210;-65
2021/04/16 02:00:48;;;;;;;11.18;7.25;;;-3.20;99.90;;;;;;2089953;28;20534;-65
2021/04/16 02:01:49;;;;;;;9.10;6.55;;;-3.20;99.90;;;;;;2089787;28;20213;-65
2021/04/16 02:02:50;;;;;;;9.75;6.75;;;-3.20;99.90;;;;;;2090038;28;20230;-63
2021/04/16 02:03:50;;;;;;;10.20;6.90;;;-3.30;99.90;;;;;;2088803;28;20224;-64
2021/04/16 02:04:51;;;;;;;9.37;6.73;;;-3.30;99.90;;;;;;2088656;28;20168;-63
2021/04/16 02:05:52;;;;;;;14.63;7.33;;;-3.20;99.90;;;;;;2090119;28;20661;-64
2021/04/16 02:06:53;;;;;;;9.43;6.93;;;-3.30;99.90;;;;;;2089251;28;20204;-65
2021/04/16 02:07:54;;;;;;;9.30;7.07;;;-3.30;99.90;;;;;;2089363;28;21138;-64
2021/04/16 02:08:55;;;;;;;10.45;7.18;;;-3.20;99.90;;;;;;2089943;28;20183;-65
2021/04/16 02:09:56;;;;;;;10.80;6.77;;;-3.20;99.90;;;;;;2090027;28;20306;-64
2021/04/16 02:10:56;;;;;;;10.47;6.87;;;-3.20;99.90;;;;;;2089832;28;20625;-65
2021/04/16 02:11:57;;;;;;;10.83;7.67;;;-3.20;99.90;;;;;;2089715;28;20261;-65
2021/04/16 02:12:58;;;;;;;11.35;7.95;;;-3.20;99.90;;;;;;2089972;28;20172;-64
2021/04/16 02:13:59;;;;;;;9.53;6.57;;;-3.20;99.90;;;;;;2089975;28;20298;-65
2021/04/16 02:15:00;;;;;;;10.10;7.07;;;-3.30;99.90;;;;;;2087870;28;20192;-64
2021/04/16 02:16:00;;;;;;;12.33;7.13;;;-3.30;99.90;;;;;;2089811;28;20180;-64
2021/04/16 02:17:09;;;;;;;11.30;7.27;;;-3.20;99.90;;;;;;2089058;28;20996;-65
2021/04/16 02:18:10;;;;;;;9.88;7.20;;;-3.30;99.90;;;;;;2089491;28;20425;-64
2021/04/16 02:19:12;;;;;;;10.60;6.90;;;-3.20;99.90;;;;;;2090276;28;20206;-64
2021/04/16 02:20:19;;;;;;;10.32;6.88;;;-3.20;99.90;;;;;;2089365;28;20709;-64
2021/04/16 02:21:20;;;;;;;8.18;6.20;;;-3.30;99.90;;;;;;2081742;28;20267;-64
2021/04/16 02:22:24;;;;;;;9.47;6.63;;;-3.30;99.90;;;;;;2089323;28;20215;-65
2021/04/16 02:23:25;;;;;;;9.60;6.75;;;-3.30;99.90;;;;;;2089736;28;20215;-63
2021/04/16 02:24:26;;;;;;;10.07;6.80;;;-3.30;99.90;;;;;;2089953;28;20183;-64
2021/04/16 02:25:27;;;;;;;9.02;6.63;;;-3.30;99.90;;;;;;2089874;28;20176;-64
2021/04/16 02:26:28;;;;;;;9.93;7.15;;;-3.30;99.90;;;;;;2089785;28;20191;-64
2021/04/16 02:27:31;;;;;;;9.77;6.83;;;-3.30;99.90;;;;;;2086587;28;20203;-64
2021/04/16 02:28:32;;;;;;;8.93;6.57;;;-3.30;99.90;;;;;;2089891;28;20204;-65
2021/04/16 02:29:33;;;;;;;11.20;7.37;;;-3.30;99.90;;;;;;2089737;28;20176;-63
2021/04/16 02:30:36;;;;;;;13.88;7.20;;;-3.30;99.90;;;;;;2089841;28;20254;-64
2021/04/16 02:31:42;;;;;;;10.10;7.30;;;-3.30;99.90;;;;;;2088897;28;20227;-63
2021/04/16 02:32:43;;;;;;;11.57;6.88;;;-3.30;99.90;;;;;;2089208;28;20167;-64
2021/04/16 02:33:44;;;;;;;10.70;7.43;;;-3.30;99.90;;;;;;2089573;28;20204;-64
2021/04/16 02:34:45;;;;;;;10.00;7.10;;;-3.40;99.90;;;;;;2089818;28;20242;-64
2021/04/16 02:35:46;;;;;;;11.65;7.63;;;-3.40;99.90;;;;;;2089606;28;20196;-64
2021/04/16 02:36:49;;;;;;;9.27;6.90;;;-3.40;99.90;;;;;;2089761;28;20667;-63
2021/04/16 02:37:51;;;;;;;9.40;6.38;;;-3.40;99.90;;;;;;2089813;28;20180;-65
2021/04/16 02:38:56;;;;;;;8.82;6.75;;;-3.40;99.90;;;;;;2089093;28;20818;-64
2021/04/16 02:39:56;;;;;;;10.48;6.78;;;-3.40;99.90;;;;;;2089115;28;20188;-64
2021/04/16 02:40:57;;;;;;;10.93;7.13;;;-3.40;99.90;;;;;;2089871;28;20598;-63
2021/04/16 02:41:58;;;;;;;10.50;6.80;;;-3.40;99.90;;;;;;2089475;28;20268;-66
2021/04/16 02:42:59;;;;;;;9.97;6.77;;;-3.40;99.90;;;;;;2089891;28;20204;-64
2021/04/16 02:44:01;;;;;;;14.40;7.40;;;-3.40;99.90;;;;;;2089478;28;20203;-63
2021/04/16 02:45:06;;;;;;;8.65;6.88;;;-3.40;99.90;;;;;;2089717;28;20191;-64
2021/04/16 02:46:06;;;;;;;8.57;6.75;;;-3.40;99.90;;;;;;2088932;28;20184;-64
2021/04/16 02:47:08;;;;;;;9.37;6.63;;;-3.40;99.90;;;;;;2089018;28;20827;-63
2021/04/16 02:48:08;;;;;;;11.43;7.22;;;-3.40;99.90;;;;;;2089567;28;20726;-64
2021/04/16 02:49:10;;;;;;;9.87;7.17;;;-3.40;99.90;;;;;;2089598;28;20187;-64
2021/04/16 02:50:16;;;;;;;10.70;6.65;;;-3.50;99.90;;;;;;2088891;28;20184;-64
2021/04/16 02:51:17;;;;;;;9.85;6.85;;;-3.40;99.90;;;;;;2081426;28;20173;-64
2021/04/16 02:52:18;;;;;;;11.55;6.95;;;-3.40;99.90;;;;;;2089036;28;20185;-66
2021/04/16 02:53:19;;;;;;;10.50;7.30;;;-3.30;99.90;;;;;;2089550;28;20186;-64
2021/04/16 02:54:20;;;;;;;12.13;6.82;;;-3.30;99.90;;;;;;2089502;28;20207;-64
2021/04/16 02:55:21;;;;;;;8.87;6.87;;;-3.30;99.90;;;;;;2089468;28;20181;-64
2021/04/16 02:56:22;;;;;;;9.87;6.77;;;-3.40;99.90;;;;;;2089533;28;20184;-63
2021/04/16 02:57:24;;;;;;;8.77;6.22;;;-3.40;99.90;;;;;;2089599;28;20184;-63
2021/04/16 02:58:25;;;;;;;9.60;6.57;;;-3.40;99.90;;;;;;2089793;28;20172;-65
2021/04/16 02:59:27;;;;;;;10.50;6.70;;;-3.40;99.90;;;;;;2089603;28;20367;-63
2021/04/16 03:00:30;;;;;;;9.50;6.45;;;-3.40;99.90;;;;;;2088867;28;20172;-62
2021/04/16 03:01:31;;;;;;;10.20;6.70;;;-3.40;99.90;;;;;;2088715;28;20862;-64
2021/04/16 03:02:32;;;;;;;12.07;6.63;;;-3.50;99.90;;;;;;2089653;28;20172;-64
2021/04/16 03:03:35;;;;;;;11.57;6.60;;;-3.40;99.90;;;;;;2089390;28;20240;-64
2021/04/16 03:04:36;;;;;;;9.90;6.80;;;-3.50;99.90;;;;;;2089658;28;20157;-64
2021/04/16 03:05:36;;;;;;;10.70;7.00;;;-3.50;99.90;;;;;;2089490;28;20180;-64
2021/04/16 03:06:37;;;;;;;9.83;6.50;;;-3.40;99.90;;;;;;2089630;28;20246;-64
2021/04/16 03:07:38;;;;;;;10.40;7.13;;;-3.40;99.90;;;;;;2089025;28;20183;-63
2021/04/16 03:08:39;;;;;;;9.57;6.60;;;-3.40;99.90;;;;;;2089056;28;20643;-64
2021/04/16 03:09:40;;;;;;;9.00;6.32;;;-3.40;99.90;;;;;;2089508;28;20165;-65
2021/04/16 03:10:41;;;;;;;9.07;7.00;;;-3.40;99.90;;;;;;2089477;28;20565;-64
2021/04/16 03:11:41;;;;;;;9.20;6.57;;;-3.40;99.90;;;;;;2089289;28;20177;-64
2021/04/16 03:12:42;;;;;;;10.60;6.83;;;-3.40;99.90;;;;;;2089622;28;20215;-62
2021/04/16 03:13:43;;;;;;;11.90;7.03;;;-3.40;99.90;;;;;;2089480;28;20192;-66
2021/04/16 03:14:44;;;;;;;8.67;6.37;;;-3.40;99.90;;;;;;2089579;28;20555;-64
2021/04/16 03:15:45;;;;;;;9.13;6.53;;;-3.40;99.90;;;;;;2089097;28;20180;-63
2021/04/16 03:16:49;;;;;;;9.52;6.60;;;-3.40;99.90;;;;;;2089486;28;20208;-64
2021/04/16 03:17:50;;;;;;;9.95;6.85;;;-3.40;99.90;;;;;;2089420;28;20681;-65
2021/04/16 03:18:52;;;;;;;8.73;6.22;;;-3.40;99.90;;;;;;2089581;28;20189;-65
2021/04/16 03:19:52;;;;;;;9.05;6.57;;;-3.50;99.90;;;;;;2088777;28;20219;-64
2021/04/16 03:20:54;;;;;;;9.97;6.30;;;-3.40;99.90;;;;;;2088897;28;20176;-65
2021/04/16 03:21:54;;;;;;;8.85;6.20;;;-3.40;99.90;;;;;;2088523;28;20263;-64
2021/04/16 03:22:55;;;;;;;9.30;6.80;;;-3.40;99.90;;;;;;2088958;28;20196;-65
2021/04/16 03:23:56;;;;;;;9.17;6.90;;;-3.40;99.90;;;;;;2089281;28;20200;-65
2021/04/16 03:24:57;;;;;;;8.02;6.28;;;-3.40;99.90;;;;;;2089512;28;20188;-63
2021/04/16 03:25:58;;;;;;;10.03;7.30;;;-3.40;99.90;;;;;;2089306;28;20219;-65
2021/04/16 03:26:58;;;;;;;9.73;6.70;;;-3.40;99.90;;;;;;2089279;28;20196;-65
2021/04/16 03:27:59;;;;;;;8.57;6.60;;;-3.40;99.90;;;;;;2089280;28;20208;-65
2021/04/16 03:29:02;;;;;;;9.10;6.53;;;-3.40;99.90;;;;;;2089345;28;20184;-66
2021/04/16 03:30:08;;;;;;;9.15;6.95;;;-3.40;99.90;;;;;;2088710;28;20181;-64
2021/04/16 03:31:09;;;;;;;8.38;6.65;;;-3.40;99.90;;;;;;2088799;28;20195;-63
2021/04/16 03:32:09;;;;;;;10.27;7.00;;;-3.40;99.90;;;;;;2089121;28;20177;-64
2021/04/16 03:33:10;;;;;;;10.10;6.83;;;-3.50;99.90;;;;;;2089380;28;20594;-65
2021/04/16 03:34:11;;;;;;;10.83;7.10;;;-3.50;99.90;;;;;;2089229;28;20215;-63
2021/04/16 03:35:13;;;;;;;7.97;5.87;;;-3.40;99.90;;;;;;2089258;28;20180;-64
2021/04/16 03:36:14;;;;;;;10.25;6.38;;;-3.40;99.90;;;;;;2089316;28;20198;-64
2021/04/16 03:37:16;;;;;;;9.07;6.77;;;-3.40;99.90;;;;;;2089236;28;20291;-64
2021/04/16 03:38:17;;;;;;;8.25;6.60;;;-3.40;99.90;;;;;;2088543;28;20206;-64
2021/04/16 03:39:18;;;;;;;7.93;6.07;;;-3.40;99.90;;;;;;2088648;28;20188;-64
2021/04/16 03:40:25;;;;;;;10.80;6.53;;;-3.50;99.90;;;;;;2089178;28;20184;-64
2021/04/16 03:41:26;;;;;;;8.25;6.43;;;-3.50;99.90;;;;;;2088517;28;20377;-64
2021/04/16 03:42:27;;;;;;;10.30;6.33;;;-3.50;99.90;;;;;;2088684;28;20234;-64
2021/04/16 03:43:27;;;;;;;9.87;6.40;;;-3.50;99.90;;;;;;2089238;28;20180;-64
2021/04/16 03:44:28;;;;;;;9.10;6.20;;;-3.60;99.90;;;;;;2089188;28;20180;-63
2021/04/16 03:45:29;;;;;;;9.73;6.90;;;-3.50;99.90;;;;;;2089302;28;20306;-64
2021/04/16 03:46:30;;;;;;;9.55;6.90;;;-3.50;99.90;;;;;;2089175;28;20203;-64
2021/04/16 03:47:32;;;;;;;8.17;6.70;;;-3.60;99.90;;;;;;2089376;28;20189;-64
2021/04/16 03:48:33;;;;;;;20.42;14.13;;;-3.60;99.90;;;;;;2089150;28;20184;-64
2021/04/16 03:49:33;;;;;;;13.63;8.83;;;-3.60;99.90;;;;;;2089239;28;20206;-63
2021/04/16 03:50:36;;;;;;;9.97;7.40;;;-3.60;99.90;;;;;;2089155;28;20176;-64
2021/04/16 03:51:53;;;;;;;10.77;6.97;;;-3.60;99.90;;;;;;2088349;28;20172;-64
2021/04/16 03:52:55;;;;;;;8.10;6.40;;;-3.60;99.90;;;;;;2088712;28;20172;-64
2021/04/16 03:53:56;;;;;;;9.98;7.00;;;-3.60;99.90;;;;;;2089002;28;20196;-64
2021/04/16 03:54:57;;;;;;;9.45;6.80;;;-3.60;99.90;;;;;;2088386;28;20181;-64
2021/04/16 03:55:57;;;;;;;10.33;6.90;;;-3.60;99.90;;;;;;2088666;28;20222;-65
2021/04/16 03:56:58;;;;;;;11.37;7.20;;;-3.60;99.90;;;;;;2089187;28;20188;-64
2021/04/16 03:57:59;;;;;;;7.70;6.13;;;-3.60;99.90;;;;;;2089178;28;20204;-64
2021/04/16 03:59:00;;;;;;;11.87;7.90;;;-3.60;99.90;;;;;;2089044;28;20184;-64
2021/04/16 04:00:03;;;;;;;9.60;6.47;;;-3.60;99.90;;;;;;2089124;28;20500;-63
2021/04/16 04:01:06;;;;;;;10.10;7.35;;;-3.70;99.90;;;;;;2088417;28;20187;-62
2021/04/16 04:02:07;;;;;;;10.27;7.68;;;-3.70;99.90;;;;;;2088530;28;20199;-64
2021/04/16 04:03:12;;;;;;;9.70;7.23;;;-3.70;99.90;;;;;;2089094;28;20231;-64
2021/04/16 04:04:17;;;;;;;13.13;7.43;;;-3.70;99.90;;;;;;2088937;28;20223;-63
2021/04/16 04:05:19;;;;;;;8.77;6.63;;;-3.70;99.90;;;;;;2088419;28;20263;-63
2021/04/16 04:06:20;;;;;;;8.88;6.75;;;-3.70;99.90;;;;;;2088429;28;20180;-63
2021/04/16 04:07:20;;;;;;;7.90;5.93;;;-3.80;99.90;;;;;;2089076;28;20219;-65
2021/04/16 04:08:21;;;;;;;8.97;6.73;;;-3.80;99.90;;;;;;2089209;28;20222;-65
2021/04/16 04:09:22;;;;;;;10.90;7.27;;;-3.80;99.90;;;;;;2089107;28;20176;-65
2021/04/16 04:10:23;;;;;;;9.43;6.47;;;-3.90;99.90;;;;;;2088458;28;20246;-65
2021/04/16 04:11:24;;;;;;;10.02;7.65;;;-3.90;99.90;;;;;;2088283;28;20414;-64
2021/04/16 04:12:25;;;;;;;9.37;6.20;;;-3.90;99.90;;;;;;2089060;28;20271;-64
2021/04/16 04:13:26;;;;;;;9.15;6.30;;;-3.90;99.90;;;;;;2088991;28;20172;-65
2021/04/16 04:14:26;;;;;;;10.53;7.80;;;-3.90;99.90;;;;;;2088356;28;20176;-65
2021/04/16 04:15:27;;;;;;;10.47;7.23;;;-3.90;99.90;;;;;;2088404;28;20238;-66
2021/04/16 04:16:28;;;;;;;9.70;6.70;;;-3.90;99.90;;;;;;2088948;28;20184;-65
2021/04/16 04:17:33;;;;;;;9.65;6.70;;;-3.90;99.90;;;;;;2089142;28;20173;-65
2021/04/16 04:18:34;;;;;;;10.45;6.47;;;-3.90;99.90;;;;;;2088950;28;20823;-64
2021/04/16 04:19:36;;;;;;;11.60;7.50;;;-3.90;99.90;;;;;;2089066;28;20347;-65
2021/04/16 04:20:38;;;;;;;9.48;7.00;;;-3.90;99.90;;;;;;2088858;28;20173;-62
2021/04/16 04:21:39;;;;;;;9.98;6.95;;;-3.90;99.90;;;;;;2088247;28;20544;-64
2021/04/16 04:22:39;;;;;;;10.13;7.17;;;-3.90;99.90;;;;;;2088367;28;20187;-66
2021/04/16 04:23:40;;;;;;;8.80;7.03;;;-3.90;99.90;;;;;;2088994;28;20917;-65
2021/04/16 04:24:41;;;;;;;11.33;6.80;;;-3.90;99.90;;;;;;2088986;28;20188;-64
2021/04/16 04:25:41;;;;;;;11.97;7.33;;;-3.90;99.90;;;;;;2089060;28;20181;-64
2021/04/16 04:26:43;;;;;;;9.77;7.03;;;-4.00;99.90;;;;;;2089010;28;20200;-65
2021/04/16 04:27:45;;;;;;;9.80;7.18;;;-4.00;99.90;;;;;;2089765;28;20183;-63
2021/04/16 04:28:47;;;;;;;9.70;6.43;;;-4.00;99.90;;;;;;2090693;28;20180;-65
2021/04/16 04:29:48;;;;;;;11.77;7.03;;;-4.00;99.90;;;;;;2090057;28;20207;-65
2021/04/16 04:30:48;;;;;;;9.37;7.00;;;-4.00;99.90;;;;;;2088976;28;20708;-63
2021/04/16 04:31:50;;;;;;;9.17;6.77;;;-4.00;99.90;;;;;;2091006;28;20176;-65
2021/04/16 04:32:52;;;;;;;9.95;7.20;;;-4.00;99.90;;;;;;2090503;28;20263;-64
2021/04/16 04:33:52;;;;;;;10.13;7.32;;;-3.90;99.90;;;;;;2090453;28;20269;-64
2021/04/16 04:34:53;;;;;;;9.83;7.93;;;-3.90;99.90;;;;;;2091042;28;20175;-65
2021/04/16 04:35:54;;;;;;;10.47;7.47;;;-3.90;99.90;;;;;;2091115;28;20180;-65
2021/04/16 04:36:59;;;;;;;8.77;6.60;;;-3.90;99.90;;;;;;2090986;28;20184;-64
2021/04/16 04:38:00;;;;;;;9.40;7.07;;;-3.90;99.90;;;;;;2090584;28;20180;-66
2021/04/16 04:39:01;;;;;;;8.52;6.95;;;-3.90;99.90;;;;;;2082232;28;20696;-65
2021/04/16 04:40:05;;;;;;;11.40;7.40;;;-3.90;99.90;;;;;;2082273;28;20181;-65
2021/04/16 04:41:06;;;;;;;9.45;7.05;;;-3.90;99.90;;;;;;2082463;28;20199;-65
2021/04/16 04:42:08;;;;;;;12.07;8.30;;;-3.90;99.90;;;;;;2090411;28;20549;-66
2021/04/16 04:43:09;;;;;;;10.00;7.50;;;-4.00;99.90;;;;;;2091157;28;20184;-65
2021/04/16 04:44:10;;;;;;;10.63;7.75;;;-4.00;99.90;;;;;;2091079;28;20296;-66
2021/04/16 04:45:13;;;;;;;12.40;7.47;;;-3.90;99.90;;;;;;2091104;28;20192;-65
2021/04/16 04:46:14;;;;;;;11.18;7.10;;;-3.90;99.90;;;;;;2091333;28;20191;-64
2021/04/16 04:47:14;;;;;;;10.68;7.53;;;-3.90;99.90;;;;;;2090953;28;20590;-65
2021/04/16 04:48:15;;;;;;;10.77;7.97;;;-3.90;99.90;;;;;;2091151;28;20192;-64
2021/04/16 04:49:19;;;;;;;10.97;7.10;;;-3.90;99.90;;;;;;2091008;28;20183;-65
2021/04/16 04:50:22;;;;;;;12.55;7.65;;;-3.90;99.90;;;;;;2091094;28;20219;-65
2021/04/16 04:51:23;;;;;;;11.35;7.28;;;-3.90;99.90;;;;;;2090776;28;20176;-66
2021/04/16 04:52:31;;;;;;;9.40;7.10;;;-3.80;99.90;;;;;;2090938;28;20191;-65
2021/04/16 04:53:33;;;;;;;9.55;7.15;;;-3.80;99.90;;;;;;2090400;28;20180;-65
2021/04/16 04:54:33;;;;;;;10.05;7.55;;;-3.90;99.90;;;;;;2090432;28;20259;-66
2021/04/16 04:55:34;;;;;;;10.33;7.57;;;-3.80;99.90;;;;;;2090901;28;20191;-66
2021/04/16 04:56:37;;;;;;;8.77;7.10;;;-3.80;99.90;;;;;;2091037;28;20180;-65
2021/04/16 04:57:38;;;;;;;9.85;8.10;;;-3.80;99.90;;;;;;2090832;28;20192;-65
2021/04/16 04:58:39;;;;;;;12.40;7.78;;;-3.80;99.90;;;;;;2090924;28;20180;-64
2021/04/16 04:59:42;;;;;;;10.13;7.70;;;-3.80;99.90;;;;;;2090854;28;20173;-64
2021/04/16 05:00:42;;;;;;;11.05;7.65;;;-3.80;99.90;;;;;;2090943;28;20556;-65
2021/04/16 05:01:43;;;;;;;11.60;8.03;;;-3.80;99.90;;;;;;2090592;28;20176;-64
2021/04/16 05:02:44;;;;;;;10.67;6.97;;;-3.80;99.90;;;;;;2090920;28;20647;-65
2021/04/16 05:03:45;;;;;;;12.13;7.67;;;-3.80;99.90;;;;;;2090587;28;20287;-66
2021/04/16 05:04:47;;;;;;;11.07;7.78;;;-3.80;99.90;;;;;;2103955;22;20423;-64
2021/04/16 05:05:47;;;;;;;12.52;8.05;;;-3.80;99.90;;;;;;2082540;28;20456;-64
2021/04/16 05:06:48;;;;;;;15.13;8.53;;;-3.80;99.90;;;;;;2090144;28;20231;-63
2021/04/16 05:07:49;;;;;;;11.87;7.77;;;-3.70;99.90;;;;;;2091082;28;20184;-63
2021/04/16 05:08:49;;;;;;;14.47;8.50;;;-3.70;99.90;;;;;;2090317;28;20188;-63
2021/04/16 05:09:50;;;;;;;11.80;8.07;;;-3.70;99.90;;;;;;2090653;28;20188;-63
2021/04/16 05:10:51;;;;;;;10.57;7.33;;;-3.70;99.90;;;;;;2090466;28;20173;-63
2021/04/16 05:11:51;;;;;;;11.13;7.80;;;-3.70;99.90;;;;;;2090091;28;20230;-63
2021/04/16 05:12:53;;;;;;;10.73;7.87;;;-3.70;99.90;;;;;;2090919;28;20177;-63
2021/04/16 05:13:54;;;;;;;10.43;7.68;;;-3.70;99.90;;;;;;2092055;28;20180;-63
2021/04/16 05:14:54;;;;;;;10.70;7.03;;;-3.60;99.90;;;;;;2091339;28;20238;-63
2021/04/16 05:15:55;;;;;;;9.37;7.87;;;-3.70;99.90;;;;;;2091343;28;20701;-64
2021/04/16 05:16:56;;;;;;;10.13;7.82;;;-3.60;99.90;;;;;;2091163;28;20264;-65
2021/04/16 05:17:57;;;;;;;9.73;7.20;;;-3.60;99.90;;;;;;2091338;28;20189;-64
2021/04/16 05:18:59;;;;;;;9.07;7.60;;;-3.60;99.90;;;;;;2091065;28;20176;-65
2021/04/16 05:20:01;;;;;;;9.98;7.60;;;-3.60;99.90;;;;;;2091303;28;20669;-64
2021/04/16 05:21:03;;;;;;;11.05;7.65;;;-3.60;99.90;;;;;;2091188;28;20188;-64
2021/04/16 05:22:07;;;;;;;11.77;8.23;;;-3.50;99.90;;;;;;2090471;28;20176;-64
2021/04/16 05:23:07;;;;;;;11.85;7.70;;;-3.50;99.90;;;;;;2090127;28;20176;-64